sensor_id;sensor_type;location;lat;lon;timestamp;pressure;altitude;pressure_sealevel;temperature;humidity
77086;BME280;66014;53.134;18.006;2022-12-20T00:00:22;101458.50;;;1.33;85.51
77086;BME280;66014;53.134;18.006;2022-12-20T00:03:08;101462.11;;;1.34;85.52
77086;BME280;66014;53.134;18.006;2022-12-20T00:05:39;101457.48;;;1.35;85.45
77086;BME280;66014;53.134;18.006;2022-12-20T00:08:08;101461.48;;;1.39;85.65
77086;BME280;66014;53.134;18.006;2022-12-20T00:10:35;101461.33;;;1.41;85.68
77086;BME280;66014;53.134;18.006;2022-12-20T00:13:02;101458.17;;;1.41;85.46
77086;BME280;66014;53.134;18.006;2022-12-20T00:15:29;101457.10;;;1.41;85.35
77086;BME280;66014;53.134;18.006;2022-12-20T00:17:57;101452.94;;;1.43;85.69
77086;BME280;66014;53.134;18.006;2022-12-20T00:20:25;101442.71;;;1.45;85.52
77086;BME280;66014;53.134;18.006;2022-12-20T00:22:52;101440.36;;;1.46;85.48
77086;BME280;66014;53.134;18.006;2022-12-20T00:25:19;101445.13;;;1.45;85.61
77086;BME280;66014;53.134;18.006;2022-12-20T00:27:47;101444.38;;;1.46;85.42
77086;BME280;66014;53.134;18.006;2022-12-20T00:30:15;101448.19;;;1.46;85.36
77086;BME280;66014;53.134;18.006;2022-12-20T00:32:43;101447.34;;;1.48;85.34
77086;BME280;66014;53.134;18.006;2022-12-20T00:35:10;101446.38;;;1.50;85.22
77086;BME280;66014;53.134;18.006;2022-12-20T00:37:37;101450.91;;;1.50;85.26
77086;BME280;66014;53.134;18.006;2022-12-20T00:40:04;101452.63;;;1.51;85.34
77086;BME280;66014;53.134;18.006;2022-12-20T00:42:31;101449.31;;;1.53;85.22
77086;BME280;66014;53.134;18.006;2022-12-20T00:44:58;101458.09;;;1.55;85.08
77086;BME280;66014;53.134;18.006;2022-12-20T00:47:25;101451.55;;;1.56;85.36
77086;BME280;66014;53.134;18.006;2022-12-20T00:49:51;101444.16;;;1.57;85.86
77086;BME280;66014;53.134;18.006;2022-12-20T00:52:17;101439.31;;;1.56;85.89
77086;BME280;66014;53.134;18.006;2022-12-20T00:54:44;101439.89;;;1.58;85.86
77086;BME280;66014;53.134;18.006;2022-12-20T00:57:11;101436.05;;;1.60;85.56
77086;BME280;66014;53.134;18.006;2022-12-20T00:59:37;101435.19;;;1.60;85.89
77086;BME280;66014;53.134;18.006;2022-12-20T01:02:04;101434.16;;;1.60;85.61
77086;BME280;66014;53.134;18.006;2022-12-20T01:04:30;101432.41;;;1.60;85.68
77086;BME280;66014;53.134;18.006;2022-12-20T01:06:57;101437.96;;;1.63;85.72
77086;BME280;66014;53.134;18.006;2022-12-20T01:09:23;101434.78;;;1.66;86.02
77086;BME280;66014;53.134;18.006;2022-12-20T01:11:50;101434.33;;;1.68;85.71
77086;BME280;66014;53.134;18.006;2022-12-20T01:14:17;101440.13;;;1.67;85.38
77086;BME280;66014;53.134;18.006;2022-12-20T01:16:45;101443.81;;;1.67;85.84
77086;BME280;66014;53.134;18.006;2022-12-20T01:19:14;101438.25;;;1.69;85.53
77086;BME280;66014;53.134;18.006;2022-12-20T01:21:44;101427.11;;;1.71;85.17
77086;BME280;66014;53.134;18.006;2022-12-20T01:24:15;101416.16;;;1.73;85.47
77086;BME280;66014;53.134;18.006;2022-12-20T01:26:43;101417.91;;;1.72;85.35
77086;BME280;66014;53.134;18.006;2022-12-20T01:29:10;101412.25;;;1.71;85.48
77086;BME280;66014;53.134;18.006;2022-12-20T01:31:37;101409.41;;;1.72;85.36
77086;BME280;66014;53.134;18.006;2022-12-20T01:34:03;101402.02;;;1.72;85.45
77086;BME280;66014;53.134;18.006;2022-12-20T01:36:33;101400.20;;;1.73;85.18
77086;BME280;66014;53.134;18.006;2022-12-20T01:39:03;101391.73;;;1.72;85.32
77086;BME280;66014;53.134;18.006;2022-12-20T01:41:35;101388.54;;;1.70;85.23
77086;BME280;66014;53.134;18.006;2022-12-20T01:44:52;101383.06;;;1.70;85.29
77086;BME280;66014;53.134;18.006;2022-12-20T01:46:51;101381.77;;;1.72;85.36
77086;BME280;66014;53.134;18.006;2022-12-20T01:49:26;101381.83;;;1.71;85.26
77086;BME280;66014;53.134;18.006;2022-12-20T01:51:59;101395.05;;;1.69;85.20
77086;BME280;66014;53.134;18.006;2022-12-20T01:54:37;101399.14;;;1.68;85.34
77086;BME280;66014;53.134;18.006;2022-12-20T01:57:08;101394.70;;;1.69;85.26
77086;BME280;66014;53.134;18.006;2022-12-20T01:59:39;101399.05;;;1.69;85.23
77086;BME280;66014;53.134;18.006;2022-12-20T02:02:10;101388.03;;;1.70;84.97
77086;BME280;66014;53.134;18.006;2022-12-20T02:04:38;101388.77;;;1.69;85.08
77086;BME280;66014;53.134;18.006;2022-12-20T02:07:05;101394.41;;;1.68;85.07
77086;BME280;66014;53.134;18.006;2022-12-20T02:09:35;101391.52;;;1.70;85.14
77086;BME280;66014;53.134;18.006;2022-12-20T02:12:16;101390.08;;;1.70;85.32
77086;BME280;66014;53.134;18.006;2022-12-20T02:14:55;101386.35;;;1.68;85.26
77086;BME280;66014;53.134;18.006;2022-12-20T02:31:11;101381.17;;;1.65;85.12
77086;BME280;66014;53.134;18.006;2022-12-20T02:33:41;101380.98;;;1.65;85.07
77086;BME280;66014;53.134;18.006;2022-12-20T02:36:09;101381.73;;;1.64;85.26
77086;BME280;66014;53.134;18.006;2022-12-20T02:38:37;101378.60;;;1.64;85.08
77086;BME280;66014;53.134;18.006;2022-12-20T02:41:18;101376.92;;;1.66;85.19
77086;BME280;66014;53.134;18.006;2022-12-20T02:43:48;101381.02;;;1.67;85.14
77086;BME280;66014;53.134;18.006;2022-12-20T02:46:37;101374.16;;;1.68;85.19
77086;BME280;66014;53.134;18.006;2022-12-20T02:49:09;101369.46;;;1.67;85.19
77086;BME280;66014;53.134;18.006;2022-12-20T02:51:37;101369.58;;;1.68;84.90
77086;BME280;66014;53.134;18.006;2022-12-20T02:54:05;101365.48;;;1.69;85.08
77086;BME280;66014;53.134;18.006;2022-12-20T02:56:39;101367.63;;;1.71;85.13
77086;BME280;66014;53.134;18.006;2022-12-20T02:59:14;101373.14;;;1.72;84.77
77086;BME280;66014;53.134;18.006;2022-12-20T03:01:51;101372.71;;;1.71;84.78
77086;BME280;66014;53.134;18.006;2022-12-20T03:04:20;101375.45;;;1.72;84.78
77086;BME280;66014;53.134;18.006;2022-12-20T03:07:00;101374.98;;;1.74;84.94
77086;BME280;66014;53.134;18.006;2022-12-20T03:09:27;101379.24;;;1.75;84.81
77086;BME280;66014;53.134;18.006;2022-12-20T03:11:55;101386.56;;;1.76;84.95
77086;BME280;66014;53.134;18.006;2022-12-20T03:14:22;101388.16;;;1.75;84.71
77086;BME280;66014;53.134;18.006;2022-12-20T03:16:49;101392.27;;;1.77;84.81
77086;BME280;66014;53.134;18.006;2022-12-20T03:19:16;101388.85;;;1.78;84.67
77086;BME280;66014;53.134;18.006;2022-12-20T03:21:43;101389.75;;;1.78;84.68
77086;BME280;66014;53.134;18.006;2022-12-20T03:24:10;101381.56;;;1.77;84.89
77086;BME280;66014;53.134;18.006;2022-12-20T03:26:36;101380.45;;;1.78;84.92
77086;BME280;66014;53.134;18.006;2022-12-20T03:29:03;101375.42;;;1.80;84.75
77086;BME280;66014;53.134;18.006;2022-12-20T03:31:30;101369.63;;;1.80;84.62
77086;BME280;66014;53.134;18.006;2022-12-20T03:33:56;101362.46;;;1.80;84.58
77086;BME280;66014;53.134;18.006;2022-12-20T03:36:27;101364.42;;;1.79;84.43
77086;BME280;66014;53.134;18.006;2022-12-20T03:38:54;101368.42;;;1.80;84.59
77086;BME280;66014;53.134;18.006;2022-12-20T03:41:23;101370.36;;;1.80;84.61
77086;BME280;66014;53.134;18.006;2022-12-20T03:45:27;101373.30;;;1.83;84.69
77086;BME280;66014;53.134;18.006;2022-12-20T03:47:53;101380.59;;;1.81;84.52
77086;BME280;66014;53.134;18.006;2022-12-20T03:50:21;101377.71;;;1.80;84.77
77086;BME280;66014;53.134;18.006;2022-12-20T03:52:46;101386.55;;;1.81;84.78
77086;BME280;66014;53.134;18.006;2022-12-20T03:55:12;101378.13;;;1.84;84.60
77086;BME280;66014;53.134;18.006;2022-12-20T03:57:39;101374.85;;;1.86;84.40
77086;BME280;66014;53.134;18.006;2022-12-20T04:00:07;101374.15;;;1.86;84.62
77086;BME280;66014;53.134;18.006;2022-12-20T04:02:33;101372.10;;;1.85;84.65
77086;BME280;66014;53.134;18.006;2022-12-20T04:04:59;101368.80;;;1.87;84.49
77086;BME280;66014;53.134;18.006;2022-12-20T04:07:25;101359.15;;;1.90;84.47
77086;BME280;66014;53.134;18.006;2022-12-20T04:09:51;101358.77;;;1.90;84.54
77086;BME280;66014;53.134;18.006;2022-12-20T04:12:17;101352.18;;;1.89;84.35
77086;BME280;66014;53.134;18.006;2022-12-20T04:14:43;101345.77;;;1.89;84.41
77086;BME280;66014;53.134;18.006;2022-12-20T04:17:08;101345.70;;;1.87;84.58
77086;BME280;66014;53.134;18.006;2022-12-20T04:19:35;101345.20;;;1.87;84.49
77086;BME280;66014;53.134;18.006;2022-12-20T04:22:00;101352.41;;;1.86;84.50
77086;BME280;66014;53.134;18.006;2022-12-20T04:24:26;101355.99;;;1.85;84.50
77086;BME280;66014;53.134;18.006;2022-12-20T04:26:54;101356.45;;;1.83;84.64
77086;BME280;66014;53.134;18.006;2022-12-20T04:29:20;101354.50;;;1.84;84.71
77086;BME280;66014;53.134;18.006;2022-12-20T04:31:46;101347.23;;;1.85;84.60
77086;BME280;66014;53.134;18.006;2022-12-20T04:34:11;101347.77;;;1.85;84.62
77086;BME280;66014;53.134;18.006;2022-12-20T04:36:37;101347.32;;;1.84;84.48
77086;BME280;66014;53.134;18.006;2022-12-20T04:39:03;101348.98;;;1.83;84.56
77086;BME280;66014;53.134;18.006;2022-12-20T04:41:29;101357.14;;;1.83;84.71
77086;BME280;66014;53.134;18.006;2022-12-20T04:44:01;101359.98;;;1.85;84.75
77086;BME280;66014;53.134;18.006;2022-12-20T04:46:28;101363.46;;;1.88;84.67
77086;BME280;66014;53.134;18.006;2022-12-20T04:48:53;101367.05;;;1.90;84.64
77086;BME280;66014;53.134;18.006;2022-12-20T04:51:19;101370.61;;;1.91;84.51
77086;BME280;66014;53.134;18.006;2022-12-20T04:53:45;101360.33;;;1.93;84.41
77086;BME280;66014;53.134;18.006;2022-12-20T04:56:20;101362.35;;;1.96;84.35
77086;BME280;66014;53.134;18.006;2022-12-20T04:58:49;101365.11;;;2.00;84.31
77086;BME280;66014;53.134;18.006;2022-12-20T05:01:15;101358.70;;;2.01;84.35
77086;BME280;66014;53.134;18.006;2022-12-20T05:03:43;101360.50;;;2.00;84.09
77086;BME280;66014;53.134;18.006;2022-12-20T05:06:10;101362.86;;;2.02;84.32
77086;BME280;66014;53.134;18.006;2022-12-20T05:08:36;101359.14;;;2.02;84.33
77086;BME280;66014;53.134;18.006;2022-12-20T05:11:05;101361.08;;;2.02;84.10
77086;BME280;66014;53.134;18.006;2022-12-20T05:13:34;101359.55;;;2.01;83.99
77086;BME280;66014;53.134;18.006;2022-12-20T05:16:00;101353.40;;;2.02;84.14
77086;BME280;66014;53.134;18.006;2022-12-20T05:18:26;101348.86;;;2.04;84.07
77086;BME280;66014;53.134;18.006;2022-12-20T05:20:57;101345.28;;;2.06;84.03
77086;BME280;66014;53.134;18.006;2022-12-20T05:23:45;101345.06;;;2.06;83.93
77086;BME280;66014;53.134;18.006;2022-12-20T05:26:33;101343.73;;;2.05;84.12
77086;BME280;66014;53.134;18.006;2022-12-20T05:28:59;101346.66;;;2.06;83.92
77086;BME280;66014;53.134;18.006;2022-12-20T05:31:25;101347.42;;;2.07;83.82
77086;BME280;66014;53.134;18.006;2022-12-20T05:33:51;101341.98;;;2.08;83.87
77086;BME280;66014;53.134;18.006;2022-12-20T05:36:17;101335.44;;;2.06;83.91
77086;BME280;66014;53.134;18.006;2022-12-20T05:38:43;101337.45;;;2.05;83.88
77086;BME280;66014;53.134;18.006;2022-12-20T05:41:09;101327.66;;;2.05;83.81
77086;BME280;66014;53.134;18.006;2022-12-20T05:43:35;101322.63;;;2.06;83.82
77086;BME280;66014;53.134;18.006;2022-12-20T05:46:00;101315.59;;;2.07;83.86
77086;BME280;66014;53.134;18.006;2022-12-20T05:48:26;101332.51;;;2.05;83.74
77086;BME280;66014;53.134;18.006;2022-12-20T05:50:52;101327.61;;;2.05;83.63
77086;BME280;66014;53.134;18.006;2022-12-20T05:53:19;101333.33;;;2.06;83.77
77086;BME280;66014;53.134;18.006;2022-12-20T05:55:50;101336.54;;;2.08;83.67
77086;BME280;66014;53.134;18.006;2022-12-20T05:58:17;101344.57;;;2.08;83.79
77086;BME280;66014;53.134;18.006;2022-12-20T06:00:43;101341.60;;;2.08;83.90
77086;BME280;66014;53.134;18.006;2022-12-20T06:03:10;101339.33;;;2.08;83.87
77086;BME280;66014;53.134;18.006;2022-12-20T06:05:38;101347.14;;;2.09;83.75
77086;BME280;66014;53.134;18.006;2022-12-20T06:08:05;101339.77;;;2.09;83.71
77086;BME280;66014;53.134;18.006;2022-12-20T06:10:32;101333.06;;;2.07;83.67
77086;BME280;66014;53.134;18.006;2022-12-20T06:13:00;101337.05;;;2.06;83.74
77086;BME280;66014;53.134;18.006;2022-12-20T06:15:27;101339.81;;;2.06;83.66
77086;BME280;66014;53.134;18.006;2022-12-20T06:17:53;101339.92;;;2.07;83.77
77086;BME280;66014;53.134;18.006;2022-12-20T06:20:19;101339.58;;;2.07;83.48
77086;BME280;66014;53.134;18.006;2022-12-20T06:22:45;101344.55;;;2.06;83.55
77086;BME280;66014;53.134;18.006;2022-12-20T06:25:11;101345.09;;;2.06;83.56
77086;BME280;66014;53.134;18.006;2022-12-20T06:27:37;101343.46;;;2.06;83.64
77086;BME280;66014;53.134;18.006;2022-12-20T06:30:04;101340.42;;;2.07;83.55
77086;BME280;66014;53.134;18.006;2022-12-20T06:32:30;101338.98;;;2.08;83.53
77086;BME280;66014;53.134;18.006;2022-12-20T06:34:57;101348.11;;;2.08;83.71
77086;BME280;66014;53.134;18.006;2022-12-20T06:37:27;101346.93;;;2.09;83.61
77086;BME280;66014;53.134;18.006;2022-12-20T06:39:53;101344.76;;;2.13;83.66
77086;BME280;66014;53.134;18.006;2022-12-20T06:42:18;101349.51;;;2.15;83.47
77086;BME280;66014;53.134;18.006;2022-12-20T06:44:44;101351.51;;;2.16;83.51
77086;BME280;66014;53.134;18.006;2022-12-20T06:47:11;101356.80;;;2.16;83.47
77086;BME280;66014;53.134;18.006;2022-12-20T06:49:37;101359.39;;;2.16;83.46
77086;BME280;66014;53.134;18.006;2022-12-20T06:52:03;101363.10;;;2.18;83.47
77086;BME280;66014;53.134;18.006;2022-12-20T06:54:29;101365.55;;;2.21;83.33
77086;BME280;66014;53.134;18.006;2022-12-20T06:56:55;101363.41;;;2.21;83.15
77086;BME280;66014;53.134;18.006;2022-12-20T06:59:21;101370.27;;;2.21;83.08
77086;BME280;66014;53.134;18.006;2022-12-20T07:01:47;101370.77;;;2.21;83.31
77086;BME280;66014;53.134;18.006;2022-12-20T07:04:13;101370.79;;;2.23;83.26
77086;BME280;66014;53.134;18.006;2022-12-20T07:06:39;101370.70;;;2.25;83.14
77086;BME280;66014;53.134;18.006;2022-12-20T07:09:05;101370.90;;;2.27;83.24
77086;BME280;66014;53.134;18.006;2022-12-20T07:11:30;101370.66;;;2.28;83.29
77086;BME280;66014;53.134;18.006;2022-12-20T07:13:57;101372.38;;;2.28;83.24
77086;BME280;66014;53.134;18.006;2022-12-20T07:16:23;101370.31;;;2.30;83.22
77086;BME280;66014;53.134;18.006;2022-12-20T07:18:51;101386.91;;;2.33;83.06
77086;BME280;66014;53.134;18.006;2022-12-20T07:21:18;101389.41;;;2.35;83.22
77086;BME280;66014;53.134;18.006;2022-12-20T07:23:47;101382.75;;;2.35;82.88
77086;BME280;66014;53.134;18.006;2022-12-20T07:26:14;101387.34;;;2.35;82.95
77086;BME280;66014;53.134;18.006;2022-12-20T07:28:41;101384.94;;;2.36;82.79
77086;BME280;66014;53.134;18.006;2022-12-20T07:31:07;101390.20;;;2.39;82.90
77086;BME280;66014;53.134;18.006;2022-12-20T07:33:33;101397.73;;;2.41;82.97
77086;BME280;66014;53.134;18.006;2022-12-20T07:36:03;101400.98;;;2.42;82.98
77086;BME280;66014;53.134;18.006;2022-12-20T07:38:29;101404.59;;;2.43;82.77
77086;BME280;66014;53.134;18.006;2022-12-20T07:40:55;101403.20;;;2.43;82.99
77086;BME280;66014;53.134;18.006;2022-12-20T07:43:21;101396.46;;;2.44;82.71
77086;BME280;66014;53.134;18.006;2022-12-20T07:45:46;101382.34;;;2.45;82.64
77086;BME280;66014;53.134;18.006;2022-12-20T07:48:12;101376.00;;;2.46;82.67
77086;BME280;66014;53.134;18.006;2022-12-20T07:50:40;101375.85;;;2.45;82.61
77086;BME280;66014;53.134;18.006;2022-12-20T07:53:06;101373.06;;;2.46;82.61
77086;BME280;66014;53.134;18.006;2022-12-20T07:55:35;101373.84;;;2.47;82.44
77086;BME280;66014;53.134;18.006;2022-12-20T07:58:07;101378.70;;;2.50;82.70
77086;BME280;66014;53.134;18.006;2022-12-20T08:00:36;101390.82;;;2.52;82.68
77086;BME280;66014;53.134;18.006;2022-12-20T08:03:08;101388.56;;;2.52;82.27
77086;BME280;66014;53.134;18.006;2022-12-20T08:05:40;101386.27;;;2.52;82.45
77086;BME280;66014;53.134;18.006;2022-12-20T08:08:08;101383.35;;;2.53;82.38
77086;BME280;66014;53.134;18.006;2022-12-20T08:10:36;101383.99;;;2.57;82.34
77086;BME280;66014;53.134;18.006;2022-12-20T08:13:03;101385.64;;;2.58;82.37
77086;BME280;66014;53.134;18.006;2022-12-20T08:15:30;101386.83;;;2.59;82.47
77086;BME280;66014;53.134;18.006;2022-12-20T08:17:57;101389.25;;;2.59;82.38
77086;BME280;66014;53.134;18.006;2022-12-20T08:20:24;101391.08;;;2.60;82.30
77086;BME280;66014;53.134;18.006;2022-12-20T08:22:49;101389.73;;;2.62;82.29
77086;BME280;66014;53.134;18.006;2022-12-20T08:25:15;101387.03;;;2.65;82.05
77086;BME280;66014;53.134;18.006;2022-12-20T08:27:42;101372.48;;;2.68;82.12
77086;BME280;66014;53.134;18.006;2022-12-20T08:30:09;101376.63;;;2.71;82.29
77086;BME280;66014;53.134;18.006;2022-12-20T08:32:36;101374.34;;;2.74;82.00
77086;BME280;66014;53.134;18.006;2022-12-20T08:35:03;101379.98;;;2.76;81.95
77086;BME280;66014;53.134;18.006;2022-12-20T08:37:29;101384.84;;;2.79;81.66
77086;BME280;66014;53.134;18.006;2022-12-20T08:39:55;101386.52;;;2.82;81.63
77086;BME280;66014;53.134;18.006;2022-12-20T08:42:21;101381.80;;;2.84;81.68
77086;BME280;66014;53.134;18.006;2022-12-20T08:44:47;101385.30;;;2.87;81.77
77086;BME280;66014;53.134;18.006;2022-12-20T08:47:13;101378.70;;;2.89;81.62
77086;BME280;66014;53.134;18.006;2022-12-20T08:49:43;101369.89;;;2.94;81.20
77086;BME280;66014;53.134;18.006;2022-12-20T08:52:09;101360.09;;;2.98;80.98
77086;BME280;66014;53.134;18.006;2022-12-20T08:54:35;101362.69;;;3.01;81.38
77086;BME280;66014;53.134;18.006;2022-12-20T08:57:01;101366.21;;;3.03;81.00
77086;BME280;66014;53.134;18.006;2022-12-20T08:59:27;101359.29;;;3.04;81.07
77086;BME280;66014;53.134;18.006;2022-12-20T09:01:53;101353.11;;;3.07;81.14
77086;BME280;66014;53.134;18.006;2022-12-20T09:04:20;101348.34;;;3.15;80.97
77086;BME280;66014;53.134;18.006;2022-12-20T09:06:49;101346.75;;;3.22;80.99
77086;BME280;66014;53.134;18.006;2022-12-20T09:09:15;101345.84;;;3.29;80.67
77086;BME280;66014;53.134;18.006;2022-12-20T09:11:41;101346.19;;;3.38;80.78
77086;BME280;66014;53.134;18.006;2022-12-20T09:14:08;101357.14;;;3.47;80.33
77086;BME280;66014;53.134;18.006;2022-12-20T09:16:33;101346.69;;;3.52;80.25
77086;BME280;66014;53.134;18.006;2022-12-20T09:19:01;101357.04;;;3.57;80.22
77086;BME280;66014;53.134;18.006;2022-12-20T09:21:27;101362.98;;;3.60;80.38
77086;BME280;66014;53.134;18.006;2022-12-20T09:23:54;101355.77;;;3.60;80.22
77086;BME280;66014;53.134;18.006;2022-12-20T09:26:22;101357.92;;;3.61;80.19
77086;BME280;66014;53.134;18.006;2022-12-20T09:28:49;101358.45;;;3.64;79.82
77086;BME280;66014;53.134;18.006;2022-12-20T09:31:22;101360.11;;;3.65;79.81
77086;BME280;66014;53.134;18.006;2022-12-20T09:33:52;101363.73;;;3.64;79.48
77086;BME280;66014;53.134;18.006;2022-12-20T09:36:22;101363.73;;;3.64;79.75
77086;BME280;66014;53.134;18.006;2022-12-20T09:38:48;101360.16;;;3.67;79.67
77086;BME280;66014;53.134;18.006;2022-12-20T09:41:31;101355.95;;;3.71;79.86
77086;BME280;66014;53.134;18.006;2022-12-20T09:44:44;101355.88;;;3.74;79.59
77086;BME280;66014;53.134;18.006;2022-12-20T09:47:14;101353.46;;;3.74;79.26
77086;BME280;66014;53.134;18.006;2022-12-20T09:49:48;101347.04;;;3.73;79.34
77086;BME280;66014;53.134;18.006;2022-12-20T09:52:47;101344.04;;;3.76;79.47
77086;BME280;66014;53.134;18.006;2022-12-20T09:55:28;101332.38;;;3.76;78.94
77086;BME280;66014;53.134;18.006;2022-12-20T09:58:24;101327.17;;;3.76;79.68
77086;BME280;66014;53.134;18.006;2022-12-20T10:00:55;101334.02;;;3.73;79.59
77086;BME280;66014;53.134;18.006;2022-12-20T10:03:28;101332.52;;;3.75;79.81
77086;BME280;66014;53.134;18.006;2022-12-20T10:06:08;101329.39;;;3.76;79.94
77086;BME280;66014;53.134;18.006;2022-12-20T10:08:44;101328.35;;;3.79;79.52
77086;BME280;66014;53.134;18.006;2022-12-20T10:16:46;101334.20;;;3.76;79.36
77086;BME280;66014;53.134;18.006;2022-12-20T10:19:45;101339.36;;;3.77;79.35
77086;BME280;66014;53.134;18.006;2022-12-20T10:22:29;101332.20;;;3.79;79.36
77086;BME280;66014;53.134;18.006;2022-12-20T10:25:21;101323.42;;;3.81;79.38
77086;BME280;66014;53.134;18.006;2022-12-20T10:27:50;101316.95;;;3.83;79.54
77086;BME280;66014;53.134;18.006;2022-12-20T10:30:21;101316.73;;;3.86;79.51
77086;BME280;66014;53.134;18.006;2022-12-20T10:32:52;101310.81;;;3.89;79.34
77086;BME280;66014;53.134;18.006;2022-12-20T10:35:29;101309.37;;;3.97;78.93
77086;BME280;66014;53.134;18.006;2022-12-20T10:42:54;101331.65;;;4.01;78.74
77086;BME280;66014;53.134;18.006;2022-12-20T10:45:33;101332.01;;;3.99;78.51
77086;BME280;66014;53.134;18.006;2022-12-20T10:48:21;101324.44;;;4.02;78.45
77086;BME280;66014;53.134;18.006;2022-12-20T10:50:58;101313.33;;;4.04;78.61
77086;BME280;66014;53.134;18.006;2022-12-20T10:53:24;101307.78;;;4.05;78.57
77086;BME280;66014;53.134;18.006;2022-12-20T10:55:53;101299.08;;;4.05;78.57
77086;BME280;66014;53.134;18.006;2022-12-20T10:58:35;101309.63;;;4.04;78.67
77086;BME280;66014;53.134;18.006;2022-12-20T11:01:17;101309.88;;;4.04;78.18
77086;BME280;66014;53.134;18.006;2022-12-20T11:04:03;101303.31;;;4.02;77.89
77086;BME280;66014;53.134;18.006;2022-12-20T11:06:41;101302.10;;;4.00;78.14
77086;BME280;66014;53.134;18.006;2022-12-20T11:09:26;101296.33;;;3.97;78.32
77086;BME280;66014;53.134;18.006;2022-12-20T11:12:12;101295.88;;;3.96;78.66
77086;BME280;66014;53.134;18.006;2022-12-20T11:14:41;101295.05;;;3.96;78.32
77086;BME280;66014;53.134;18.006;2022-12-20T11:17:27;101295.45;;;3.95;78.70
77086;BME280;66014;53.134;18.006;2022-12-20T11:20:27;101294.14;;;3.92;78.50
77086;BME280;66014;53.134;18.006;2022-12-20T11:23:30;101296.12;;;3.89;78.80
77086;BME280;66014;53.134;18.006;2022-12-20T11:34:36;101303.37;;;3.79;79.22
77086;BME280;66014;53.134;18.006;2022-12-20T11:42:37;101302.17;;;3.77;79.42
77086;BME280;66014;53.134;18.006;2022-12-20T11:45:14;101300.84;;;3.71;79.48
77086;BME280;66014;53.134;18.006;2022-12-20T11:48:07;101294.27;;;3.67;79.66
77086;BME280;66014;53.134;18.006;2022-12-20T11:56:01;101286.05;;;3.63;79.82
77086;BME280;66014;53.134;18.006;2022-12-20T11:58:37;101283.52;;;3.61;80.06
77086;BME280;66014;53.134;18.006;2022-12-20T12:01:15;101279.00;;;3.59;80.25
77086;BME280;66014;53.134;18.006;2022-12-20T12:04:11;101270.24;;;3.56;79.84
77086;BME280;66014;53.134;18.006;2022-12-20T12:06:52;101271.66;;;3.59;80.24
77086;BME280;66014;53.134;18.006;2022-12-20T12:17:45;101263.35;;;3.61;80.37
77086;BME280;66014;53.134;18.006;2022-12-20T12:23:05;101261.45;;;3.66;80.47
77086;BME280;66014;53.134;18.006;2022-12-20T12:25:32;101259.72;;;3.67;80.40
77086;BME280;66014;53.134;18.006;2022-12-20T12:28:00;101256.20;;;3.67;80.42
77086;BME280;66014;53.134;18.006;2022-12-20T12:30:28;101257.85;;;3.66;80.46
77086;BME280;66014;53.134;18.006;2022-12-20T12:33:04;101246.77;;;3.67;80.45
77086;BME280;66014;53.134;18.006;2022-12-20T12:46:50;101243.04;;;3.67;80.45
77086;BME280;66014;53.134;18.006;2022-12-20T12:49:22;101241.40;;;3.68;80.42
77086;BME280;66014;53.134;18.006;2022-12-20T12:51:55;101237.02;;;3.68;80.26
77086;BME280;66014;53.134;18.006;2022-12-20T12:54:24;101232.71;;;3.67;80.14
77086;BME280;66014;53.134;18.006;2022-12-20T12:57:00;101230.64;;;3.69;80.06
77086;BME280;66014;53.134;18.006;2022-12-20T13:05:28;101221.75;;;3.77;79.59
77086;BME280;66014;53.134;18.006;2022-12-20T13:07:49;101222.66;;;3.79;79.97
77086;BME280;66014;53.134;18.006;2022-12-20T13:12:56;101213.58;;;3.85;79.47
77086;BME280;66014;53.134;18.006;2022-12-20T13:17:59;101194.89;;;3.83;79.70
77086;BME280;66014;53.134;18.006;2022-12-20T13:20:31;101190.50;;;3.81;79.71
77086;BME280;66014;53.134;18.006;2022-12-20T13:23:09;101187.59;;;3.81;79.68
77086;BME280;66014;53.134;18.006;2022-12-20T13:30:42;101204.14;;;3.82;79.57
77086;BME280;66014;53.134;18.006;2022-12-20T13:35:56;101207.96;;;3.85;79.42
77086;BME280;66014;53.134;18.006;2022-12-20T13:38:51;101203.36;;;3.87;79.44
77086;BME280;66014;53.134;18.006;2022-12-20T13:43:50;101209.81;;;3.86;79.20
77086;BME280;66014;53.134;18.006;2022-12-20T13:46:51;101210.55;;;3.85;79.37
77086;BME280;66014;53.134;18.006;2022-12-20T13:49:31;101213.89;;;3.85;79.12
77086;BME280;66014;53.134;18.006;2022-12-20T13:52:24;101206.29;;;3.86;79.14
77086;BME280;66014;53.134;18.006;2022-12-20T13:54:56;101198.71;;;3.84;79.02
77086;BME280;66014;53.134;18.006;2022-12-20T13:59:54;101188.94;;;3.81;79.55
77086;BME280;66014;53.134;18.006;2022-12-20T14:02:23;101188.28;;;3.81;79.61
77086;BME280;66014;53.134;18.006;2022-12-20T14:04:57;101190.63;;;3.82;79.45
77086;BME280;66014;53.134;18.006;2022-12-20T14:07:24;101183.64;;;3.84;79.59
77086;BME280;66014;53.134;18.006;2022-12-20T14:09:58;101183.92;;;3.85;79.30
77086;BME280;66014;53.134;18.006;2022-12-20T14:12:26;101188.22;;;3.84;79.11
77086;BME280;66014;53.134;18.006;2022-12-20T14:14:52;101187.45;;;3.82;79.36
77086;BME280;66014;53.134;18.006;2022-12-20T14:17:29;101185.65;;;3.83;79.16
77086;BME280;66014;53.134;18.006;2022-12-20T14:25:15;101180.78;;;3.82;79.41
77086;BME280;66014;53.134;18.006;2022-12-20T14:27:43;101180.86;;;3.81;79.52
77086;BME280;66014;53.134;18.006;2022-12-20T14:32:57;101179.38;;;3.80;79.25
77086;BME280;66014;53.134;18.006;2022-12-20T14:35:24;101175.91;;;3.82;79.42
77086;BME280;66014;53.134;18.006;2022-12-20T14:37:56;101174.98;;;3.82;79.23
77086;BME280;66014;53.134;18.006;2022-12-20T14:40:23;101167.98;;;3.82;79.40
77086;BME280;66014;53.134;18.006;2022-12-20T14:42:49;101172.38;;;3.82;79.42
77086;BME280;66014;53.134;18.006;2022-12-20T14:45:20;101166.84;;;3.83;79.19